createdAt,value
2022-10-25T00:00:58.364Z,0.60
2022-10-25T00:03:25.395Z,0.57
2022-10-25T00:05:52.364Z,0.70
2022-10-25T00:08:19.321Z,0.75
2022-10-25T00:10:46.326Z,0.63
2022-10-25T00:13:13.306Z,0.60
2022-10-25T00:15:40.276Z,0.57
2022-10-25T00:18:07.242Z,0.50
2022-10-25T00:20:36.897Z,0.60
2022-10-25T00:23:03.855Z,1.00
2022-10-25T00:25:30.827Z,0.68
2022-10-25T00:27:57.777Z,0.80
2022-10-25T00:30:24.951Z,0.75
2022-10-25T00:32:52.909Z,0.77
2022-10-25T00:35:20.096Z,0.90
2022-10-25T00:37:47.170Z,0.60
2022-10-25T00:40:14.257Z,0.90
2022-10-25T00:42:41.248Z,0.80
2022-10-25T00:45:22.137Z,0.50
2022-10-25T00:47:57.911Z,0.82
2022-10-25T00:50:48.212Z,0.73
2022-10-25T00:53:20.417Z,0.70
2022-10-25T00:55:52.189Z,0.90
2022-10-25T00:58:24.236Z,1.02
2022-10-25T01:00:51.259Z,0.82
2022-10-25T01:03:20.928Z,0.98
2022-10-25T01:05:48.960Z,0.95
2022-10-25T01:08:17.677Z,0.52
2022-10-25T01:10:44.665Z,0.70
2022-10-25T01:13:11.881Z,0.95
2022-10-25T01:15:52.028Z,0.82
2022-10-25T01:22:35.886Z,0.80
2022-10-25T01:25:30.846Z,1.35
2022-10-25T01:28:06.733Z,0.98
2022-10-25T01:31:11.945Z,0.93
2022-10-25T01:33:59.751Z,1.13
2022-10-25T01:36:51.569Z,1.02
2022-10-25T01:39:21.249Z,1.00
2022-10-25T01:42:17.192Z,0.70
2022-10-25T01:45:09.109Z,0.90
2022-10-25T01:47:38.674Z,1.10
2022-10-25T01:50:11.106Z,1.02
2022-10-25T01:52:38.076Z,1.00
2022-10-25T01:55:09.733Z,1.00
2022-10-25T01:57:54.068Z,1.17
2022-10-25T02:00:23.578Z,1.13
2022-10-25T02:02:59.367Z,1.00
2022-10-25T02:05:27.891Z,1.10
2022-10-25T02:08:17.817Z,0.93
2022-10-25T02:10:53.748Z,1.13
2022-10-25T02:13:38.888Z,1.25
2022-10-25T02:16:19.158Z,1.20
2022-10-25T02:18:51.397Z,0.93
2022-10-25T02:21:19.116Z,1.00
2022-10-25T02:23:48.399Z,1.10
2022-10-25T02:26:16.682Z,1.23
2022-10-25T02:28:44.441Z,1.15
2022-10-25T02:31:16.540Z,1.23
2022-10-25T02:33:47.843Z,1.40
2022-10-25T02:36:20.783Z,1.20
2022-10-25T02:38:49.280Z,0.90
2022-10-25T02:41:16.840Z,1.27
2022-10-25T02:43:44.329Z,1.40
2022-10-25T02:46:14.284Z,1.60
2022-10-25T02:48:42.359Z,1.30
2022-10-25T02:51:11.346Z,1.60
2022-10-25T02:53:39.066Z,1.50
2022-10-25T02:56:07.729Z,1.30
2022-10-25T02:58:36.893Z,1.33
2022-10-25T03:01:05.307Z,1.27
2022-10-25T03:03:33.010Z,1.50
2022-10-25T03:06:00.001Z,1.35
2022-10-25T03:10:55.665Z,1.40
2022-10-25T03:13:22.629Z,1.40
2022-10-25T03:15:49.941Z,1.63
2022-10-25T03:18:16.905Z,1.75
2022-10-25T03:20:44.306Z,1.30
2022-10-25T03:23:11.981Z,1.60
2022-10-25T03:25:39.245Z,2.72
2022-10-25T03:28:06.220Z,1.58
2022-10-25T03:30:33.502Z,1.80
2022-10-25T03:33:00.524Z,1.60
2022-10-25T03:35:27.788Z,1.60
2022-10-25T03:37:54.997Z,1.70
2022-10-25T03:40:22.146Z,1.80
2022-10-25T03:42:49.051Z,1.45
2022-10-25T03:45:16.051Z,1.38
2022-10-25T03:47:43.201Z,1.52
2022-10-25T03:50:10.596Z,1.70
2022-10-25T03:52:37.777Z,1.52
2022-10-25T03:55:05.552Z,1.60
2022-10-25T03:57:32.481Z,1.95
2022-10-25T03:59:59.758Z,1.60
2022-10-25T04:02:27.930Z,1.50
2022-10-25T04:04:54.981Z,1.98
2022-10-25T04:07:21.885Z,1.65
2022-10-25T04:09:48.740Z,1.88
2022-10-25T04:12:15.807Z,2.63
2022-10-25T04:14:43.269Z,1.80
2022-10-25T04:17:10.258Z,1.50
2022-10-25T04:19:37.170Z,1.90
2022-10-25T04:22:04.145Z,1.52
2022-10-25T04:24:31.104Z,1.65
2022-10-25T04:26:58.065Z,1.88
2022-10-25T04:29:24.995Z,1.70
2022-10-25T04:31:51.966Z,1.77
2022-10-25T04:34:19.054Z,1.90
2022-10-25T04:36:46.036Z,2.30
2022-10-25T04:39:12.967Z,2.28
2022-10-25T04:41:39.921Z,1.88
2022-10-25T04:44:06.927Z,1.88
2022-10-25T04:46:33.978Z,2.08
2022-10-25T04:49:00.860Z,1.50
2022-10-25T04:51:27.781Z,2.00
2022-10-25T04:53:55.441Z,2.03
2022-10-25T04:56:23.306Z,1.40
2022-10-25T04:58:50.314Z,1.90
2022-10-25T05:01:19.309Z,1.98
2022-10-25T05:03:46.763Z,1.17
2022-10-25T05:06:19.320Z,1.98
2022-10-25T05:08:50.791Z,2.10
2022-10-25T05:11:21.161Z,1.85
2022-10-25T05:13:48.525Z,2.10
2022-10-25T05:16:22.176Z,2.08
2022-10-25T05:18:50.590Z,2.17
2022-10-25T05:21:18.754Z,2.20
2022-10-25T05:23:46.605Z,2.47
2022-10-25T05:26:16.469Z,1.90
2022-10-25T05:31:20.652Z,1.80
2022-10-25T05:33:53.415Z,2.17
2022-10-25T05:36:21.153Z,2.00
2022-10-25T05:38:48.431Z,2.08
2022-10-25T05:41:17.218Z,2.28
2022-10-25T05:43:45.088Z,2.55
2022-10-25T05:46:15.280Z,2.22
2022-10-25T05:51:32.851Z,2.03
2022-10-25T05:54:12.949Z,2.28
2022-10-25T05:56:40.723Z,2.08
2022-10-25T05:59:09.903Z,2.10
2022-10-25T06:01:39.647Z,1.73
2022-10-25T06:06:34.844Z,2.13
2022-10-25T06:09:02.537Z,2.03
2022-10-25T06:11:30.060Z,2.10
2022-10-25T06:13:57.150Z,2.03
2022-10-25T06:16:24.536Z,2.13
2022-10-25T06:18:52.398Z,2.40
2022-10-25T06:21:22.113Z,2.10
2022-10-25T06:23:49.752Z,1.95
2022-10-25T06:26:22.841Z,2.15
2022-10-25T06:28:53.592Z,1.95
2022-10-25T06:31:21.107Z,2.03
2022-10-25T06:33:48.356Z,2.28
2022-10-25T06:36:21.823Z,1.92
2022-10-25T06:38:50.020Z,2.22
2022-10-25T06:41:19.775Z,2.17
2022-10-25T06:46:25.604Z,1.92
2022-10-25T06:48:54.079Z,2.47
2022-10-25T06:51:22.104Z,2.10
2022-10-25T06:53:57.883Z,2.17
2022-10-25T06:56:26.243Z,2.50
2022-10-25T06:58:53.477Z,2.42
2022-10-25T07:01:22.410Z,2.00
2022-10-25T07:03:50.940Z,2.30
2022-10-25T07:06:22.183Z,2.15
2022-10-25T07:08:58.828Z,2.33
2022-10-25T07:11:27.123Z,2.55
2022-10-25T07:13:55.092Z,2.13
2022-10-25T07:16:22.343Z,2.22
2022-10-25T07:18:49.461Z,2.00
2022-10-25T07:21:21.551Z,2.20
2022-10-25T07:23:50.298Z,2.35
2022-10-25T07:26:20.554Z,2.03
2022-10-25T07:28:50.120Z,2.10
2022-10-25T07:31:23.288Z,1.73
2022-10-25T07:33:51.899Z,1.90
2022-10-25T07:36:19.242Z,1.77
2022-10-25T07:38:46.715Z,2.08
2022-10-25T07:41:13.768Z,2.08
2022-10-25T07:43:40.862Z,1.80
2022-10-25T07:46:08.064Z,2.17
2022-10-25T07:48:35.454Z,1.77
2022-10-25T07:51:08.023Z,1.75
2022-10-25T07:53:35.134Z,1.95
2022-10-25T07:56:02.115Z,1.48
2022-10-25T07:58:29.473Z,1.60
2022-10-25T08:01:05.228Z,1.70
2022-10-25T08:03:33.003Z,1.85
2022-10-25T08:06:00.806Z,1.73
2022-10-25T08:08:28.560Z,1.70
2022-10-25T08:10:56.038Z,2.40
2022-10-25T08:13:23.115Z,1.50
2022-10-25T08:15:54.656Z,1.15
2022-10-25T08:18:22.971Z,1.65
2022-10-25T08:21:01.777Z,1.90
2022-10-25T08:23:31.590Z,2.08
2022-10-25T08:25:59.353Z,1.67
2022-10-25T08:28:26.414Z,1.80
2022-10-25T08:30:55.432Z,1.60
2022-10-25T08:33:22.996Z,1.27
2022-10-25T08:35:50.078Z,1.75
2022-10-25T08:38:17.124Z,1.80
2022-10-25T08:40:52.996Z,1.45
2022-10-25T08:43:45.120Z,1.33
2022-10-25T08:46:29.697Z,1.85
2022-10-25T08:49:16.267Z,1.20
2022-10-25T08:51:47.341Z,1.58
2022-10-25T08:54:26.511Z,1.20
2022-10-25T08:57:15.079Z,1.65
2022-10-25T08:59:45.357Z,1.67
2022-10-25T09:02:46.016Z,1.63
2022-10-25T09:05:50.444Z,1.77
2022-10-25T09:08:39.191Z,1.65
2022-10-25T09:11:53.893Z,1.70
2022-10-25T09:14:51.601Z,1.33
2022-10-25T09:17:25.351Z,1.48
2022-10-25T09:19:54.980Z,1.42
2022-10-25T09:22:28.098Z,1.30
2022-10-25T09:25:03.112Z,1.27
2022-10-25T09:27:46.638Z,1.65
2022-10-25T09:30:13.884Z,1.02
2022-10-25T09:32:43.012Z,1.60
2022-10-25T09:35:20.798Z,1.05
2022-10-25T09:38:01.984Z,1.55
2022-10-25T09:40:56.773Z,1.70
2022-10-25T09:43:33.983Z,1.20
2022-10-25T09:46:07.028Z,1.40
2022-10-25T09:48:50.804Z,1.38
2022-10-25T09:51:32.042Z,1.13
2022-10-25T09:54:02.223Z,1.15
2022-10-25T09:56:29.429Z,1.45
2022-10-25T09:58:58.014Z,1.23
2022-10-25T10:01:29.465Z,1.40
2022-10-25T10:04:21.148Z,1.35
2022-10-25T10:06:50.827Z,1.55
2022-10-25T10:09:18.317Z,1.20
2022-10-25T10:11:47.758Z,1.23
2022-10-25T10:14:39.480Z,1.27
2022-10-25T10:17:12.169Z,1.20
2022-10-25T10:19:40.529Z,1.20
2022-10-25T10:22:15.337Z,1.35
2022-10-25T10:24:44.572Z,1.27
2022-10-25T10:27:26.517Z,1.40
2022-10-25T10:30:00.813Z,1.50
2022-10-25T10:41:31.845Z,1.00
2022-10-25T10:44:13.490Z,1.40
2022-10-25T10:50:36.155Z,1.25
2022-10-25T10:53:06.110Z,1.33
2022-10-25T10:55:38.125Z,1.50
2022-10-25T10:58:05.014Z,1.08
2022-10-25T11:04:53.778Z,1.42
2022-10-25T11:07:26.823Z,0.90
2022-10-25T11:09:53.726Z,1.20
2022-10-25T11:12:24.806Z,1.30
2022-10-25T11:14:51.957Z,1.33
2022-10-25T11:17:32.328Z,0.95
2022-10-25T11:20:30.766Z,0.95
2022-10-25T11:23:22.075Z,1.20
2022-10-25T11:25:58.223Z,1.15
2022-10-25T11:28:42.238Z,1.05
2022-10-25T11:32:18.143Z,1.15
2022-10-25T11:34:54.059Z,1.10
2022-10-25T11:37:23.377Z,1.10
2022-10-25T11:40:14.837Z,1.10
2022-10-25T11:43:22.517Z,1.02
2022-10-25T11:45:59.391Z,1.33
2022-10-25T11:48:29.351Z,0.95
2022-10-25T11:51:31.723Z,1.15
2022-10-25T11:54:20.563Z,0.88
2022-10-25T11:57:05.581Z,1.17
2022-10-25T12:00:03.567Z,1.15
2022-10-25T12:02:34.284Z,1.38
2022-10-25T12:08:08.872Z,1.20
2022-10-25T12:11:18.027Z,0.90
2022-10-25T12:13:50.816Z,1.17
2022-10-25T12:16:21.031Z,0.95
2022-10-25T12:19:13.590Z,1.35
2022-10-25T12:21:51.076Z,1.10
2022-10-25T12:24:22.413Z,1.25
2022-10-25T12:26:53.124Z,1.55
2022-10-25T12:29:26.522Z,1.10
2022-10-25T12:31:58.269Z,1.17
2022-10-25T12:34:43.022Z,0.95
2022-10-25T12:37:36.036Z,1.10
2022-10-25T12:40:04.824Z,1.33
2022-10-25T12:43:16.609Z,1.40
2022-10-25T12:46:10.755Z,1.00
2022-10-25T12:48:43.458Z,1.30
2022-10-25T12:51:29.267Z,1.25
2022-10-25T12:53:58.935Z,1.10
2022-10-25T12:56:37.471Z,1.30
2022-10-25T12:59:19.329Z,1.10
2022-10-25T13:01:52.434Z,1.42
2022-10-25T13:04:43.766Z,1.00
2022-10-25T13:07:12.446Z,1.20
2022-10-25T13:09:39.850Z,0.93
2022-10-25T13:12:16.804Z,1.50
2022-10-25T13:14:56.077Z,0.90
2022-10-25T13:17:22.885Z,1.10
2022-10-25T13:23:59.606Z,1.20
2022-10-25T13:26:30.961Z,1.00
2022-10-25T13:29:00.220Z,1.50
2022-10-25T13:31:34.871Z,1.15
2022-10-25T13:34:13.954Z,1.20
2022-10-25T13:36:56.461Z,1.45
2022-10-25T13:39:29.272Z,1.23
2022-10-25T13:42:16.375Z,1.27
2022-10-25T13:44:53.547Z,1.25
2022-10-25T13:47:37.050Z,1.40
2022-10-25T13:50:29.065Z,1.15
2022-10-25T13:53:27.331Z,1.25
2022-10-25T13:56:07.113Z,1.30
2022-10-25T14:03:03.061Z,1.23
2022-10-25T14:05:55.090Z,1.75
2022-10-25T14:08:59.457Z,1.13
2022-10-25T14:11:32.492Z,1.40
2022-10-25T14:14:05.401Z,1.70
2022-10-25T14:21:05.593Z,1.20
2022-10-25T14:23:34.759Z,1.38
2022-10-25T14:26:03.107Z,1.23
2022-10-25T14:28:32.610Z,1.20
2022-10-25T14:31:04.801Z,1.13
2022-10-25T14:33:36.746Z,1.10
2022-10-25T14:36:06.396Z,1.50
2022-10-25T14:39:40.465Z,1.30
2022-10-25T14:42:17.153Z,1.15
2022-10-25T14:44:47.306Z,1.13
2022-10-25T14:47:33.895Z,1.33
2022-10-25T14:50:02.096Z,1.10
2022-10-25T14:52:31.481Z,1.20
2022-10-25T14:55:03.329Z,1.20
2022-10-25T14:57:31.473Z,1.23
2022-10-25T15:00:01.893Z,1.30
2022-10-25T15:02:39.878Z,1.10
2022-10-25T15:05:07.482Z,1.48
2022-10-25T15:07:41.401Z,1.23
2022-10-25T15:10:28.822Z,1.30
2022-10-25T15:12:56.239Z,1.25
2022-10-25T15:15:36.473Z,1.55
2022-10-25T15:18:05.185Z,1.30
2022-10-25T15:20:34.594Z,1.55
2022-10-25T15:23:14.641Z,1.40
2022-10-25T15:25:41.684Z,1.63
2022-10-25T15:28:14.409Z,1.50
2022-10-25T15:30:45.055Z,1.38
2022-10-25T15:33:21.742Z,1.17
2022-10-25T15:35:58.117Z,1.70
2022-10-25T15:39:10.421Z,1.48
2022-10-25T15:41:40.086Z,1.30
2022-10-25T15:44:07.197Z,1.38
2022-10-25T15:46:35.047Z,1.27
2022-10-25T15:49:06.726Z,1.35
2022-10-25T15:51:36.076Z,1.50
2022-10-25T15:54:03.194Z,2.13
2022-10-25T15:56:30.610Z,2.33
2022-10-25T15:59:00.371Z,2.40
2022-10-25T16:01:27.515Z,2.25
2022-10-25T16:03:54.538Z,2.25
2022-10-25T16:06:21.511Z,2.60
2022-10-25T16:08:48.452Z,2.72
2022-10-25T16:11:18.801Z,3.08
2022-10-25T16:13:48.118Z,2.67
2022-10-25T16:16:40.381Z,3.30
2022-10-25T16:19:16.054Z,3.13
2022-10-25T16:21:43.882Z,2.83
2022-10-25T16:24:11.683Z,3.10
2022-10-25T16:26:44.812Z,2.80
2022-10-25T16:29:20.790Z,3.17
2022-10-25T16:31:47.773Z,3.00
2022-10-25T16:34:19.501Z,2.42
2022-10-25T16:36:48.097Z,2.80
2022-10-25T16:39:15.561Z,2.00
2022-10-25T16:41:47.014Z,2.08
2022-10-25T16:44:16.731Z,2.28
2022-10-25T16:46:44.412Z,2.05
2022-10-25T16:49:12.066Z,2.22
2022-10-25T16:51:40.024Z,2.03
2022-10-25T16:54:07.358Z,3.90
2022-10-25T16:56:34.446Z,2.47
2022-10-25T16:59:01.452Z,3.08
2022-10-25T17:01:34.437Z,2.63
2022-10-25T17:08:27.575Z,4.13
2022-10-25T17:10:54.538Z,3.00
2022-10-25T17:13:21.541Z,3.10
2022-10-25T17:15:48.581Z,2.88
2022-10-25T17:18:20.869Z,2.10
2022-10-25T17:20:50.067Z,2.10
2022-10-25T17:23:17.013Z,2.60
2022-10-25T17:25:59.212Z,2.47
2022-10-25T17:32:50.568Z,4.40
2022-10-25T17:35:19.561Z,4.43
2022-10-25T17:37:47.202Z,3.70
2022-10-25T17:40:14.545Z,3.38
2022-10-25T17:43:07.764Z,3.22
2022-10-25T17:45:34.906Z,3.38
2022-10-25T17:48:02.745Z,3.70
2022-10-25T17:50:31.133Z,4.13
2022-10-25T17:53:02.269Z,4.90
2022-10-25T17:55:33.096Z,5.72
2022-10-25T17:59:04.405Z,5.43
2022-10-25T18:06:04.724Z,5.00
2022-10-25T18:08:31.646Z,4.53
2022-10-25T18:10:58.984Z,5.53
2022-10-25T18:13:28.931Z,5.70
2022-10-25T18:16:01.257Z,4.22
2022-10-25T18:18:28.261Z,3.95
2022-10-25T18:20:55.214Z,4.00
2022-10-25T18:23:26.086Z,3.95
2022-10-25T18:25:53.467Z,3.47
2022-10-25T18:28:20.509Z,4.03
2022-10-25T18:30:47.474Z,4.43
2022-10-25T18:33:15.128Z,4.60
2022-10-25T18:35:42.237Z,6.30
2022-10-25T18:38:09.257Z,5.90
2022-10-25T18:40:37.767Z,5.00
2022-10-25T18:43:04.737Z,4.82
2022-10-25T18:45:35.178Z,4.55
2022-10-25T18:48:02.139Z,4.43
2022-10-25T18:50:29.076Z,4.30
2022-10-25T18:52:56.056Z,8.70
2022-10-25T18:55:26.743Z,11.43
2022-10-25T18:57:54.876Z,22.80
2022-10-25T19:00:26.343Z,21.10
2022-10-25T19:02:57.317Z,15.48
2022-10-25T19:05:28.220Z,10.63
2022-10-25T19:07:56.198Z,16.55
2022-10-25T19:11:28.727Z,17.08
2022-10-25T19:13:56.598Z,14.68
2022-10-25T19:16:24.053Z,20.52
2022-10-25T19:18:51.144Z,17.88
2022-10-25T19:21:18.918Z,17.58
2022-10-25T19:27:47.716Z,7.90
2022-10-25T19:30:15.080Z,6.43
2022-10-25T19:32:42.178Z,5.95
2022-10-25T19:35:09.469Z,5.05
2022-10-25T19:37:39.712Z,5.45
2022-10-25T19:44:25.136Z,4.53
2022-10-25T19:46:52.588Z,4.32
2022-10-25T19:49:19.611Z,4.10
2022-10-25T19:51:47.158Z,4.20
2022-10-25T19:54:14.468Z,4.40
2022-10-25T19:56:41.436Z,4.53
2022-10-25T19:59:10.818Z,4.45
2022-10-25T20:02:32.569Z,4.82
2022-10-25T20:04:59.695Z,15.05
2022-10-25T20:07:26.665Z,10.63
2022-10-25T20:09:53.725Z,7.63
2022-10-25T20:12:21.000Z,5.53
2022-10-25T20:14:48.245Z,5.15
2022-10-25T20:17:15.547Z,4.95
2022-10-25T20:19:42.583Z,4.80
2022-10-25T20:22:09.541Z,4.57
2022-10-25T20:24:36.523Z,4.82
2022-10-25T20:27:03.484Z,4.88
2022-10-25T20:29:30.552Z,4.47
2022-10-25T20:31:57.558Z,4.95
2022-10-25T20:34:24.607Z,5.05
2022-10-25T20:37:06.197Z,4.65
2022-10-25T20:39:33.201Z,4.68
2022-10-25T20:42:00.497Z,4.43
2022-10-25T20:44:27.473Z,4.20
2022-10-25T20:46:54.807Z,4.78
2022-10-25T20:49:21.796Z,5.07
2022-10-25T20:51:48.776Z,4.65
2022-10-25T20:54:15.811Z,5.07
2022-10-25T20:56:42.783Z,5.05
2022-10-25T20:59:09.932Z,4.88
2022-10-25T21:01:37.414Z,5.22
2022-10-25T21:04:04.870Z,5.07
2022-10-25T21:06:31.866Z,5.03
2022-10-25T21:08:58.902Z,5.20
2022-10-25T21:11:29.064Z,5.60
2022-10-25T21:13:56.107Z,5.30
2022-10-25T21:16:23.351Z,7.15
2022-10-25T21:18:50.326Z,7.32
2022-10-25T21:21:19.525Z,7.38
2022-10-25T21:23:47.491Z,4.10
2022-10-25T21:26:14.768Z,4.97
2022-10-25T21:28:42.005Z,4.95
2022-10-25T21:31:11.799Z,5.40
2022-10-25T21:36:15.389Z,5.38
2022-10-25T21:38:42.950Z,5.03
2022-10-25T21:41:20.629Z,4.90
2022-10-25T21:43:49.953Z,5.00
2022-10-25T21:46:18.471Z,5.28
2022-10-25T21:48:50.732Z,4.63
2022-10-25T21:51:19.336Z,4.70
2022-10-25T21:53:47.209Z,4.75
2022-10-25T21:56:16.518Z,4.47
2022-10-25T21:58:45.150Z,4.72
2022-10-25T22:01:14.991Z,4.50
2022-10-25T22:03:42.448Z,4.47
2022-10-25T22:06:11.350Z,5.15
2022-10-25T22:08:38.882Z,4.47
2022-10-25T22:11:10.992Z,4.65
2022-10-25T22:13:38.014Z,5.25
2022-10-25T22:16:06.425Z,5.10
2022-10-25T22:18:33.888Z,4.20
2022-10-25T22:21:04.443Z,5.00
2022-10-25T22:23:32.376Z,4.43
2022-10-25T22:26:02.376Z,5.43
2022-10-25T22:28:30.478Z,5.10
2022-10-25T22:31:02.557Z,4.30
2022-10-25T22:33:30.178Z,4.90
2022-10-25T22:36:05.973Z,4.82
2022-10-25T22:38:33.388Z,4.43
2022-10-25T22:41:02.280Z,4.30
2022-10-25T22:43:30.042Z,4.67
2022-10-25T22:45:59.922Z,4.15
2022-10-25T22:48:30.993Z,4.00
2022-10-25T22:50:58.058Z,4.65
2022-10-25T22:53:25.345Z,3.88
2022-10-25T22:55:58.127Z,4.60
2022-10-25T22:58:26.696Z,3.97
2022-10-25T23:01:09.226Z,4.60
2022-10-25T23:03:38.501Z,4.63
2022-10-25T23:06:07.726Z,4.22
2022-10-25T23:08:34.686Z,4.20
2022-10-25T23:11:04.632Z,4.45
2022-10-25T23:13:33.614Z,4.28
2022-10-25T23:16:01.284Z,4.43
2022-10-25T23:18:28.317Z,4.70
2022-10-25T23:20:57.494Z,4.00
2022-10-25T23:23:25.549Z,4.65
2022-10-25T23:25:53.058Z,3.80
2022-10-25T23:28:20.560Z,4.20
2022-10-25T23:30:47.564Z,4.38
2022-10-25T23:33:15.699Z,4.55
2022-10-25T23:35:42.870Z,4.60
2022-10-25T23:38:13.980Z,3.97
2022-10-25T23:40:45.671Z,4.22
2022-10-25T23:43:12.616Z,4.53
2022-10-25T23:45:41.758Z,3.53
2022-10-25T23:48:08.851Z,3.40
2022-10-25T23:50:35.834Z,3.63
2022-10-25T23:53:02.881Z,3.55
2022-10-25T23:55:29.867Z,3.90
2022-10-25T23:57:57.902Z,3.80
